createdAt,value
2018-05-03T00:00:19.312Z,12.3
2018-05-03T00:01:09.095Z,12.3
2018-05-03T00:01:59.529Z,12.3
2018-05-03T00:02:49.229Z,12.4
2018-05-03T00:03:39.279Z,12.4
2018-05-03T00:04:29.644Z,12.4
2018-05-03T00:05:19.707Z,12.4
2018-05-03T00:06:09.499Z,12.4
2018-05-03T00:06:59.369Z,12.4
2018-05-03T00:07:49.402Z,12.4
2018-05-03T00:08:39.534Z,12.4
2018-05-03T00:09:29.750Z,12.4
2018-05-03T00:10:19.618Z,12.3
2018-05-03T00:11:09.712Z,12.2
2018-05-03T00:11:59.961Z,12.2
2018-05-03T00:12:49.746Z,12.1
2018-05-03T00:13:40.072Z,12.1
2018-05-03T00:14:30.425Z,12
2018-05-03T00:15:20.534Z,11.9
2018-05-03T00:16:10.542Z,11.8
2018-05-03T00:17:00.596Z,11.8
2018-05-03T00:17:50.657Z,11.8
2018-05-03T00:18:40.716Z,11.8
2018-05-03T00:19:30.805Z,11.9
2018-05-03T00:20:20.857Z,11.9
2018-05-03T00:21:10.904Z,11.9
2018-05-03T00:22:01.055Z,12
2018-05-03T00:22:51.039Z,12
2018-05-03T00:23:41.095Z,12
2018-05-03T00:24:31.190Z,12
2018-05-03T00:25:20.962Z,12
2018-05-03T00:26:11.016Z,12
2018-05-03T00:27:01.095Z,12
2018-05-03T00:27:50.595Z,12
2018-05-03T00:28:41.485Z,12
2018-05-03T00:29:31.585Z,12
2018-05-03T00:30:21.065Z,12.1
2018-05-03T00:31:11.140Z,12.1
2018-05-03T00:32:01.210Z,12.2
2018-05-03T00:32:51.853Z,12.3
2018-05-03T00:33:41.628Z,12.3
2018-05-03T00:34:31.412Z,12.3
2018-05-03T00:35:22.045Z,12.3
2018-05-03T00:36:12.151Z,12.3
2018-05-03T00:37:01.943Z,12.2
2018-05-03T00:37:51.732Z,12.1
2018-05-03T00:38:41.240Z,12.1
2018-05-03T00:39:31.588Z,12.1
2018-05-03T00:40:21.929Z,12.1
2018-05-03T00:41:11.429Z,12.1
2018-05-03T00:42:02.078Z,12.1
2018-05-03T00:42:52.096Z,12.1
2018-05-03T00:43:41.894Z,12.1
2018-05-03T00:44:32.255Z,12
2018-05-03T00:45:22.519Z,12
2018-05-03T00:46:12.294Z,12.1
2018-05-03T00:47:02.915Z,12
2018-05-03T00:47:52.975Z,12
2018-05-03T00:48:43.031Z,12
2018-05-03T00:49:32.848Z,12
2018-05-03T00:50:22.885Z,12.1
2018-05-03T00:51:12.965Z,12
2018-05-03T00:52:03.339Z,12
2018-05-03T00:52:53.385Z,12
2018-05-03T00:53:43.427Z,12
2018-05-03T00:54:33.495Z,12
2018-05-03T00:55:23.590Z,12.1
2018-05-03T00:56:13.703Z,12.1
2018-05-03T00:57:03.726Z,12.1
2018-05-03T00:57:53.466Z,12
2018-05-03T00:58:43.831Z,12.1
2018-05-03T00:59:33.889Z,11.9
2018-05-03T01:00:23.961Z,11.9
2018-05-03T01:01:14.047Z,11.9
2018-05-03T01:02:04.117Z,11.9
2018-05-03T01:02:53.607Z,11.9
2018-05-03T01:03:43.666Z,11.9
2018-05-03T01:04:34.278Z,11.9
2018-05-03T01:05:24.141Z,11.9
2018-05-03T01:06:13.879Z,11.9
2018-05-03T01:07:04.186Z,11.9
2018-05-03T01:07:53.977Z,11.9
2018-05-03T01:08:44.588Z,11.9
2018-05-03T01:09:34.652Z,11.9
2018-05-03T01:10:24.460Z,11.8
2018-05-03T01:11:14.534Z,11.8
2018-05-03T01:12:04.587Z,11.8
2018-05-03T01:12:54.946Z,11.8
2018-05-03T01:13:44.983Z,11.7
2018-05-03T01:14:34.791Z,11.7
2018-05-03T01:15:25.099Z,11.8
2018-05-03T01:16:14.631Z,11.7
2018-05-03T01:17:05.243Z,11.6
2018-05-03T01:17:54.747Z,11.6
2018-05-03T01:18:45.357Z,11.6
2018-05-03T01:19:34.887Z,11.6
2018-05-03T01:20:25.228Z,11.6
2018-05-03T01:21:15.577Z,11.5
2018-05-03T01:22:04.778Z,11.4
2018-05-03T01:22:55.709Z,11.4
2018-05-03T01:23:45.514Z,11.3
2018-05-03T01:24:35.554Z,11.3
2018-05-03T01:25:25.330Z,11.2
2018-05-03T01:26:15.702Z,11.1
2018-05-03T01:27:05.998Z,11.1
2018-05-03T01:27:56.091Z,11.1
2018-05-03T01:28:46.168Z,11.1
2018-05-03T01:29:36.190Z,11.1
2018-05-03T01:30:26.262Z,11.2
2018-05-03T01:31:16.347Z,11.2
2018-05-03T01:32:06.132Z,11.1
2018-05-03T01:32:56.560Z,11.1
2018-05-03T01:33:46.250Z,11
2018-05-03T01:34:36.584Z,10.9
2018-05-03T01:35:26.659Z,10.9
2018-05-03T01:36:16.744Z,11
2018-05-03T01:37:06.490Z,11
2018-05-03T01:37:56.589Z,10.9
2018-05-03T01:38:46.358Z,10.9
2018-05-03T01:39:36.993Z,10.9
2018-05-03T01:40:27.053Z,10.9
2018-05-03T01:41:16.260Z,10.9
2018-05-03T01:42:07.177Z,10.9
2018-05-03T01:42:56.681Z,10.9
2018-05-03T01:43:47.313Z,10.9
2018-05-03T01:44:37.091Z,10.9
2018-05-03T01:45:27.164Z,10.9
2018-05-03T01:46:17.495Z,10.8
2018-05-03T01:47:06.729Z,10.8
2018-05-03T01:47:57.640Z,10.9
2018-05-03T01:48:46.643Z,10.9
2018-05-03T01:49:37.264Z,10.9
2018-05-03T01:50:27.333Z,10.9
2018-05-03T01:51:17.132Z,10.9
2018-05-03T01:52:07.960Z,10.9
2018-05-03T01:52:57.732Z,10.9
2018-05-03T01:53:48.082Z,10.9
2018-05-03T01:54:38.150Z,10.9
2018-05-03T01:55:28.230Z,10.9
2018-05-03T01:56:18.015Z,10.9
2018-05-03T01:57:08.137Z,10.9
2018-05-03T01:57:58.134Z,10.8
2018-05-03T01:58:48.479Z,10.8
2018-05-03T01:59:38.062Z,10.8
2018-05-03T02:00:28.320Z,10.8
2018-05-03T02:01:18.157Z,10.8
2018-05-03T02:02:08.451Z,10.8
2018-05-03T02:02:58.519Z,10.8
2018-05-03T02:03:48.597Z,10.8
2018-05-03T02:04:38.930Z,10.8
2018-05-03T02:05:28.137Z,10.8
2018-05-03T02:06:19.048Z,10.8
2018-05-03T02:07:08.820Z,10.8
2018-05-03T02:07:58.894Z,10.8
2018-05-03T02:08:49.262Z,10.8
2018-05-03T02:09:39.030Z,10.8
2018-05-03T02:10:29.376Z,10.8
2018-05-03T02:11:19.214Z,10.8
2018-05-03T02:12:09.526Z,10.8
2018-05-03T02:12:59.559Z,10.9
2018-05-03T02:13:49.655Z,10.9
2018-05-03T02:14:39.699Z,10.8
2018-05-03T02:15:29.474Z,10.8
2018-05-03T02:16:19.846Z,10.8
2018-05-03T02:17:09.615Z,10.8
2018-05-03T02:17:59.741Z,10.8
2018-05-03T02:18:49.752Z,10.9
2018-05-03T02:19:40.096Z,10.9
2018-05-03T02:20:30.135Z,10.9
2018-05-03T02:21:20.205Z,10.9
2018-05-03T02:22:10.260Z,10.8
2018-05-03T02:23:00.335Z,10.8
2018-05-03T02:23:50.385Z,10.7
2018-05-03T02:24:40.457Z,10.6
2018-05-03T02:25:30.532Z,10.6
2018-05-03T02:26:20.586Z,10.6
2018-05-03T02:27:10.353Z,10.6
2018-05-03T02:28:00.458Z,10.5
2018-05-03T02:28:50.797Z,10.6
2018-05-03T02:29:40.849Z,10.6
2018-05-03T02:30:30.937Z,10.6
2018-05-03T02:31:20.999Z,10.6
2018-05-03T02:32:11.049Z,10.6
2018-05-03T02:33:00.559Z,10.6
2018-05-03T02:33:50.705Z,10.6
2018-05-03T02:34:40.975Z,10.6
2018-05-03T02:35:31.095Z,10.6
2018-05-03T02:36:20.893Z,10.6
2018-05-03T02:37:10.663Z,10.6
2018-05-03T02:38:01.027Z,10.6
2018-05-03T02:38:51.607Z,10.6
2018-05-03T02:39:41.141Z,10.6
2018-05-03T02:40:31.223Z,10.6
2018-05-03T02:41:21.013Z,10.6
2018-05-03T02:42:11.348Z,10.6
2018-05-03T02:43:01.136Z,10.6
2018-05-03T02:43:51.183Z,10.5
2018-05-03T02:44:40.966Z,10.5
2018-05-03T02:45:31.613Z,10.5
2018-05-03T02:46:21.588Z,10.5
2018-05-03T02:47:12.215Z,10.4
2018-05-03T02:48:02.091Z,10.5
2018-05-03T02:48:52.330Z,10.5
2018-05-03T02:49:42.465Z,10.4
2018-05-03T02:50:32.481Z,10.4
2018-05-03T02:51:22.511Z,10.3
2018-05-03T02:52:12.014Z,10.3
2018-05-03T02:53:02.661Z,10.2
2018-05-03T02:53:52.715Z,10.3
2018-05-03T02:54:42.525Z,10.3
2018-05-03T02:55:32.581Z,10.4
2018-05-03T02:56:22.621Z,10.4
2018-05-03T02:57:12.145Z,10.4
2018-05-03T02:58:02.176Z,10.4
2018-05-03T02:58:52.835Z,10.4
2018-05-03T02:59:42.916Z,10.5
2018-05-03T03:00:33.227Z,10.5
2018-05-03T03:01:23.304Z,10.4
2018-05-03T03:02:13.214Z,10.4
2018-05-03T03:03:03.439Z,10.4
2018-05-03T03:03:53.535Z,10.5
2018-05-03T03:04:43.269Z,10.5
2018-05-03T03:05:33.342Z,10.5
2018-05-03T03:06:23.415Z,10.5
2018-05-03T03:07:13.482Z,10.5
2018-05-03T03:08:03.801Z,10.4
2018-05-03T03:08:53.626Z,10.4
2018-05-03T03:09:44.509Z,10.4
2018-05-03T03:10:33.447Z,10.4
2018-05-03T03:11:24.081Z,10.4
2018-05-03T03:12:13.567Z,10.4
2018-05-03T03:13:04.183Z,10.4
2018-05-03T03:13:54.243Z,10.4
2018-05-03T03:14:44.316Z,10.3
2018-05-03T03:15:34.402Z,10.2
2018-05-03T03:16:24.437Z,10.3
2018-05-03T03:17:14.217Z,10.1
2018-05-03T03:18:04.301Z,10.1
2018-05-03T03:18:54.359Z,10.1
2018-05-03T03:19:44.425Z,10.1
2018-05-03T03:20:33.928Z,10
2018-05-03T03:21:24.623Z,9.9
2018-05-03T03:22:14.363Z,9.9
2018-05-03T03:23:04.408Z,9.9
2018-05-03T03:23:55.025Z,9.9
2018-05-03T03:24:45.082Z,9.9
2018-05-03T03:25:34.730Z,9.9
2018-05-03T03:26:24.667Z,9.9
2018-05-03T03:27:14.817Z,9.9
2018-05-03T03:28:05.078Z,9.9
2018-05-03T03:28:55.145Z,9.9
2018-05-03T03:29:45.202Z,9.8
2018-05-03T03:30:34.989Z,9.8
2018-05-03T03:31:25.154Z,9.8
2018-05-03T03:32:14.820Z,9.8
2018-05-03T03:33:05.725Z,9.8
2018-05-03T03:33:55.797Z,9.8
2018-05-03T03:34:45.859Z,9.8
2018-05-03T03:35:35.924Z,9.8
2018-05-03T03:36:25.419Z,9.8
2018-05-03T03:37:16.062Z,9.8
2018-05-03T03:38:05.806Z,9.8
2018-05-03T03:38:55.632Z,9.8
2018-05-03T03:39:45.964Z,9.9
2018-05-03T03:40:36.318Z,9.9
2018-05-03T03:41:26.367Z,10
2018-05-03T03:42:16.177Z,9.9
2018-05-03T03:43:06.578Z,10
2018-05-03T03:43:56.363Z,10
2018-05-03T03:44:46.608Z,10
2018-05-03T03:45:36.702Z,10
2018-05-03T03:46:26.745Z,10
2018-05-03T03:47:16.826Z,10.1
2018-05-03T03:48:06.622Z,10.1
2018-05-03T03:48:56.930Z,10.2
2018-05-03T03:49:47.007Z,10.2
2018-05-03T03:50:36.789Z,10.3
2018-05-03T03:51:27.133Z,10.3
2018-05-03T03:52:16.632Z,10.3
2018-05-03T03:53:06.813Z,10.3
2018-05-03T03:53:56.762Z,10.3
2018-05-03T03:54:47.402Z,10.3
2018-05-03T03:55:36.958Z,10.4
2018-05-03T03:56:26.977Z,10.3
2018-05-03T03:57:17.590Z,10.4
2018-05-03T03:58:07.651Z,10.5
2018-05-03T03:58:57.850Z,10.6
2018-05-03T03:59:47.238Z,10.6
2018-05-03T04:00:37.853Z,10.8
2018-05-03T04:01:27.923Z,10.8
2018-05-03T04:02:18.097Z,10.8
2018-05-03T04:03:07.785Z,10.8
2018-05-03T04:03:57.831Z,10.9
2018-05-03T04:04:47.628Z,10.9
2018-05-03T04:05:37.675Z,10.9
2018-05-03T04:06:28.274Z,10.8
2018-05-03T04:07:17.524Z,10.8
2018-05-03T04:08:07.662Z,10.8
2018-05-03T04:08:58.507Z,10.8
2018-05-03T04:09:48.267Z,10.8
2018-05-03T04:10:38.061Z,10.9
2018-05-03T04:11:28.436Z,10.9
2018-05-03T04:12:18.750Z,10.9
2018-05-03T04:13:08.817Z,10.9
2018-05-03T04:13:58.899Z,11
2018-05-03T04:14:48.648Z,11
2018-05-03T04:15:39.033Z,11
2018-05-03T04:16:29.073Z,11
2018-05-03T04:17:18.550Z,11
2018-05-03T04:18:09.199Z,11.1
2018-05-03T04:18:59.249Z,11.1
2018-05-03T04:19:48.775Z,11.1
2018-05-03T04:20:39.367Z,11.2
2018-05-03T04:21:29.507Z,11.3
2018-05-03T04:22:20.397Z,11.3
2018-05-03T04:23:09.288Z,11.3
2018-05-03T04:23:59.358Z,11.3
2018-05-03T04:24:49.687Z,11.4
2018-05-03T04:25:39.014Z,11.4
2018-05-03T04:26:29.851Z,11.4
2018-05-03T04:27:19.325Z,11.6
2018-05-03T04:28:09.977Z,11.6
2018-05-03T04:29:00.048Z,11.7
2018-05-03T04:29:49.832Z,11.8
2018-05-03T04:30:39.603Z,11.9
2018-05-03T04:31:30.235Z,11.8
2018-05-03T04:32:20.300Z,11.7
2018-05-03T04:33:10.050Z,11.7
2018-05-03T04:34:00.438Z,11.7
2018-05-03T04:34:50.202Z,11.6
2018-05-03T04:35:40.055Z,11.7
2018-05-03T04:36:30.624Z,11.8
2018-05-03T04:37:20.681Z,11.9
2018-05-03T04:38:10.505Z,11.8
2018-05-03T04:39:00.816Z,11.8
2018-05-03T04:39:50.870Z,11.8
2018-05-03T04:40:40.347Z,11.8
2018-05-03T04:41:30.989Z,11.9
2018-05-03T04:42:20.781Z,11.9
2018-05-03T04:43:11.108Z,11.9
2018-05-03T04:44:01.158Z,12.1
2018-05-03T04:44:50.966Z,12.1
2018-05-03T04:45:41.319Z,12.1
2018-05-03T04:46:31.405Z,12.2
2018-05-03T04:47:21.427Z,12.1
2018-05-03T04:48:11.217Z,12.2
2018-05-03T04:49:00.993Z,12.3
2018-05-03T04:49:51.350Z,12.3
2018-05-03T04:50:41.693Z,12.4
2018-05-03T04:51:31.748Z,12.5
2018-05-03T04:52:21.258Z,12.5
2018-05-03T04:53:11.629Z,12.4
2018-05-03T04:54:01.954Z,12.4
2018-05-03T04:54:52.024Z,12.6
2018-05-03T04:55:41.803Z,12.8
2018-05-03T04:56:31.843Z,12.8
2018-05-03T04:57:22.320Z,12.8
2018-05-03T04:58:12.262Z,12.8
2018-05-03T04:59:02.323Z,12.8
2018-05-03T04:59:52.120Z,12.6
2018-05-03T05:00:42.466Z,12.6
2018-05-03T05:01:32.525Z,12.6
2018-05-03T05:02:22.660Z,12.8
2018-05-03T05:03:12.642Z,12.9
2018-05-03T05:04:02.702Z,13
2018-05-03T05:04:52.784Z,13.1
2018-05-03T05:05:42.842Z,13.4
2018-05-03T05:06:32.633Z,13.5
2018-05-03T05:07:22.702Z,13.6
2018-05-03T05:08:12.754Z,13.9
2018-05-03T05:09:02.886Z,13.9
2018-05-03T05:09:53.188Z,14
2018-05-03T05:10:43.256Z,14
2018-05-03T05:11:33.300Z,14.2
2018-05-03T05:12:23.102Z,14.2
2018-05-03T05:13:13.143Z,14.3
2018-05-03T05:14:02.944Z,14.3
2018-05-03T05:14:53.262Z,14.2
2018-05-03T05:15:43.400Z,13.9
2018-05-03T05:16:33.678Z,14
2018-05-03T05:17:23.731Z,14.1
2018-05-03T05:18:13.518Z,14.2
2018-05-03T05:19:03.895Z,14.3
2018-05-03T05:19:53.659Z,14.4
2018-05-03T05:20:43.986Z,14.5
2018-05-03T05:21:34.081Z,14.6
2018-05-03T05:22:24.113Z,14.7
2018-05-03T05:23:14.208Z,14.9
2018-05-03T05:24:03.986Z,15
2018-05-03T05:24:54.371Z,15
2018-05-03T05:25:43.896Z,14.8
2018-05-03T05:26:33.893Z,14.9
2018-05-03T05:27:24.547Z,15
2018-05-03T05:28:14.774Z,15.1
2018-05-03T05:29:04.223Z,15.2
2018-05-03T05:29:54.716Z,15.3
2018-05-03T05:30:45.285Z,15.3
2018-05-03T05:31:34.838Z,15.2
2018-05-03T05:32:24.907Z,15.3
2018-05-03T05:33:14.979Z,15.3
2018-05-03T05:34:04.751Z,15.4
2018-05-03T05:34:55.106Z,15.3
2018-05-03T05:35:45.173Z,15.4
2018-05-03T05:36:34.939Z,15.6
2018-05-03T05:37:25.296Z,15.8
2018-05-03T05:38:15.354Z,16
2018-05-03T05:39:06.038Z,16.1
2018-05-03T05:39:55.513Z,15.9
2018-05-03T05:40:44.729Z,15.6
2018-05-03T05:41:35.618Z,15.4
2018-05-03T05:42:25.398Z,15.4
2018-05-03T05:43:15.738Z,15.6
2018-05-03T05:44:05.524Z,15.8
2018-05-03T05:44:55.592Z,15.9
2018-05-03T05:45:45.661Z,16
2018-05-03T05:46:36.017Z,16.1
2018-05-03T05:47:26.059Z,16.1
2018-05-03T05:48:15.900Z,16.1
2018-05-03T05:49:05.912Z,16.3
2018-05-03T05:49:56.280Z,16.4
2018-05-03T05:50:45.469Z,16.4
2018-05-03T05:51:36.125Z,16.4
2018-05-03T05:52:25.918Z,16.4
2018-05-03T05:53:16.059Z,16.5
2018-05-03T05:54:06.629Z,16.8
2018-05-03T05:54:56.373Z,16.9
2018-05-03T05:55:46.716Z,16.8
2018-05-03T05:56:36.689Z,16.8
2018-05-03T05:57:26.848Z,16.9
2018-05-03T05:58:16.926Z,16.9
2018-05-03T05:59:06.993Z,16.8
2018-05-03T05:59:56.787Z,16.8
2018-05-03T06:01:36.930Z,16.9
2018-05-03T06:02:27.253Z,17.1
2018-05-03T06:03:17.332Z,16.8
2018-05-03T06:04:07.112Z,16.6
2018-05-03T06:04:57.180Z,16.7
2018-05-03T06:05:47.238Z,16.6
2018-05-03T06:06:37.597Z,16.6
2018-05-03T06:07:27.630Z,16.6
2018-05-03T06:08:17.418Z,16.3
2018-05-03T06:09:07.771Z,16.6
2018-05-03T06:09:57.927Z,16.8
2018-05-03T06:10:47.600Z,16.5
2018-05-03T06:11:37.425Z,16.9
2018-05-03T06:12:27.819Z,17.3
2018-05-03T06:13:17.839Z,17.2
2018-05-03T06:14:08.160Z,17.3
2018-05-03T06:14:57.679Z,17.4
2018-05-03T06:15:48.287Z,17.7
2018-05-03T06:16:38.087Z,17.8
2018-05-03T06:17:28.418Z,17.8
2018-05-03T06:18:18.199Z,18.3
2018-05-03T06:19:08.558Z,18.5
2018-05-03T06:19:58.338Z,18.4
2018-05-03T06:20:48.430Z,18.6
2018-05-03T06:21:38.777Z,18.6
2018-05-03T06:22:28.533Z,18.3
2018-05-03T06:23:18.418Z,18
2018-05-03T06:24:08.657Z,18
2018-05-03T06:24:59.014Z,18.2
2018-05-03T06:25:49.088Z,18.4
2018-05-03T06:26:38.920Z,18.6
2018-05-03T06:27:29.230Z,18.5
2018-05-03T06:29:09.342Z,18.8
2018-05-03T06:29:59.152Z,18.3
2018-05-03T06:30:49.480Z,18.4
2018-05-03T06:31:39.552Z,18.5
2018-05-03T06:32:29.306Z,18.8
2018-05-03T06:33:19.388Z,18.9
2018-05-03T06:34:09.732Z,18.9
2018-05-03T06:34:59.244Z,18.9
2018-05-03T06:35:49.314Z,19
2018-05-03T06:36:39.908Z,18.9
2018-05-03T06:37:29.990Z,18.9
2018-05-03T06:38:20.061Z,18.9
2018-05-03T06:39:09.831Z,19
2018-05-03T06:39:59.919Z,19.1
2018-05-03T06:40:50.273Z,19.3
2018-05-03T06:41:40.310Z,19.1
2018-05-03T06:42:30.382Z,19.2
2018-05-03T06:43:20.198Z,19.3
2018-05-03T06:44:10.518Z,19.6
2018-05-03T06:45:00.571Z,19.6
2018-05-03T06:45:50.637Z,19.6
2018-05-03T06:46:39.954Z,19.6
2018-05-03T06:47:30.474Z,19.8
2018-05-03T06:48:20.862Z,19.8
2018-05-03T06:49:10.360Z,19.9
2018-05-03T06:50:00.702Z,19.7
2018-05-03T06:50:50.748Z,19.6
2018-05-03T06:51:40.758Z,19.5
2018-05-03T06:52:30.160Z,19.4
2018-05-03T06:53:20.973Z,19.4
2018-05-03T06:54:11.298Z,19.4
2018-05-03T06:55:01.122Z,19.3
2018-05-03T06:55:51.439Z,19.4
2018-05-03T06:56:40.969Z,19.4
2018-05-03T06:57:31.570Z,19.5
2018-05-03T06:58:21.062Z,19.4
2018-05-03T06:59:11.702Z,19.2
2018-05-03T07:00:01.508Z,19.3
2018-05-03T07:00:51.549Z,19.4
2018-05-03T07:01:41.916Z,19.6
2018-05-03T07:02:31.678Z,19.8
2018-05-03T07:03:22.014Z,19.9
2018-05-03T07:04:12.712Z,20.1
2018-05-03T07:05:01.884Z,20.1
2018-05-03T07:05:52.213Z,20
2018-05-03T07:06:42.016Z,19.9
2018-05-03T07:07:32.092Z,20
2018-05-03T07:08:22.153Z,20.1
2018-05-03T07:09:12.204Z,20.2
2018-05-03T07:10:02.276Z,20.4
2018-05-03T07:10:52.607Z,20.3
2018-05-03T07:11:42.682Z,20.3
2018-05-03T07:12:32.464Z,20.3
2018-05-03T07:13:22.813Z,20.3
2018-05-03T07:14:12.332Z,20.1
2018-05-03T07:15:02.957Z,20
2018-05-03T07:15:53.003Z,20
2018-05-03T07:16:43.157Z,20.1
2018-05-03T07:17:32.858Z,20.3
2018-05-03T07:18:23.241Z,20.5
2018-05-03T07:19:12.973Z,20.8
2018-05-03T07:20:02.806Z,21
2018-05-03T07:20:52.845Z,21.1
2018-05-03T07:22:33.540Z,21.3
2018-05-03T07:23:23.605Z,21.2
2018-05-03T07:24:13.419Z,21.2
2018-05-03T07:25:03.529Z,21.3
2018-05-03T07:25:53.814Z,21.6
2018-05-03T07:26:43.959Z,21.6
2018-05-03T07:27:33.676Z,21.6
2018-05-03T07:28:23.447Z,21.4
2018-05-03T07:29:13.816Z,21.5
2018-05-03T07:30:04.161Z,21.4
2018-05-03T07:30:54.347Z,21.4
2018-05-03T07:31:43.964Z,21.6
2018-05-03T07:32:34.401Z,21.7
2018-05-03T07:33:24.480Z,21.6
2018-05-03T07:34:14.460Z,21.8
2018-05-03T07:35:04.263Z,21.6
2018-05-03T07:35:54.653Z,21.3
2018-05-03T07:36:44.357Z,21.4
2018-05-03T07:37:34.436Z,21.3
2018-05-03T07:38:24.777Z,21.4
2018-05-03T07:39:14.626Z,21.4
2018-05-03T07:40:05.155Z,21.4
2018-05-03T07:40:55.448Z,21.1
2018-05-03T07:42:34.858Z,21.3
2018-05-03T07:43:25.177Z,21.4
2018-05-03T07:44:14.720Z,21.4
2018-05-03T07:45:05.304Z,21.6
2018-05-03T07:45:55.438Z,21.8
2018-05-03T07:46:45.190Z,21.8
2018-05-03T07:47:35.245Z,21.8
2018-05-03T07:48:24.835Z,21.7
2018-05-03T07:49:15.384Z,21.9
2018-05-03T07:50:05.567Z,21.9
2018-05-03T07:50:55.005Z,21.9
2018-05-03T07:51:45.375Z,21.9
2018-05-03T07:52:35.615Z,22
2018-05-03T07:53:25.125Z,22.3
2018-05-03T07:54:15.168Z,22.2
2018-05-03T07:55:06.123Z,22.1
2018-05-03T07:55:55.603Z,22.3
2018-05-03T07:56:45.602Z,22.4
2018-05-03T07:57:36.050Z,22.6
2018-05-03T07:58:25.807Z,22.6
2018-05-03T07:59:16.128Z,22.4
2018-05-03T08:00:06.117Z,22.5
2018-05-03T08:00:56.312Z,23.1
2018-05-03T08:01:46.156Z,23.3
2018-05-03T08:02:35.924Z,23.4
2018-05-03T08:03:26.263Z,23.3
2018-05-03T08:04:16.350Z,23.3
2018-05-03T08:05:06.320Z,23.7
2018-05-03T08:05:56.190Z,24.1
2018-05-03T08:06:47.009Z,23.8
2018-05-03T08:07:37.074Z,23.8
2018-05-03T08:08:27.148Z,24.1
2018-05-03T08:09:16.938Z,23.9
2018-05-03T08:10:07.276Z,23.1
2018-05-03T08:10:57.729Z,23.4
2018-05-03T08:11:46.556Z,23.6
2018-05-03T08:12:37.612Z,24.1
2018-05-03T08:13:27.274Z,24.8
2018-05-03T08:14:17.365Z,25.1
2018-05-03T08:15:07.379Z,25
2018-05-03T08:15:57.769Z,25
2018-05-03T08:16:47.797Z,25.3
2018-05-03T08:17:37.860Z,25.4
2018-05-03T08:18:27.990Z,25.3
2018-05-03T08:19:18.021Z,25.6
2018-05-03T08:20:08.079Z,25.8
2018-05-03T08:20:57.846Z,25.4
2018-05-03T08:21:48.192Z,25.3
2018-05-03T08:22:37.419Z,25.5
2018-05-03T08:23:28.067Z,25.2
2018-05-03T08:24:18.388Z,24.8
2018-05-03T08:25:08.204Z,24.6
2018-05-03T08:25:57.963Z,25
2018-05-03T08:26:48.366Z,25.1
2018-05-03T08:27:38.390Z,23.9
2018-05-03T08:28:28.893Z,24.1
2018-05-03T08:29:18.808Z,24.8
2018-05-03T08:30:08.572Z,25.3
2018-05-03T08:30:58.923Z,25.1
2018-05-03T08:31:48.845Z,25.3
2018-05-03T08:32:39.066Z,25.1
2018-05-03T08:33:29.109Z,25.3
2018-05-03T08:34:19.182Z,25.4
2018-05-03T08:35:08.684Z,24.5
2018-05-03T08:35:59.098Z,24.9
2018-05-03T08:36:49.382Z,24.4
2018-05-03T08:37:38.902Z,24
2018-05-03T08:38:29.524Z,24.1
2018-05-03T08:39:19.673Z,24.3
2018-05-03T08:40:09.682Z,24.8
2018-05-03T08:40:59.447Z,25.1
2018-05-03T08:41:49.781Z,25.2
2018-05-03T08:42:39.565Z,24.9
2018-05-03T08:43:29.911Z,24.3
2018-05-03T08:44:20.003Z,24.8
2018-05-03T08:45:10.030Z,25
2018-05-03T08:46:00.176Z,25.3
2018-05-03T08:46:50.168Z,25.7
2018-05-03T08:47:40.252Z,25.6
2018-05-03T08:48:30.320Z,25.8
2018-05-03T08:49:20.394Z,25.8
2018-05-03T08:50:10.172Z,26.1
2018-05-03T08:50:59.930Z,26.1
2018-05-03T08:51:50.019Z,25.6
2018-05-03T08:52:40.748Z,25.6
2018-05-03T08:53:30.461Z,25.9
2018-05-03T08:54:20.772Z,25.6
2018-05-03T08:55:10.827Z,24.9
2018-05-03T08:56:00.343Z,25.1
2018-05-03T08:56:50.970Z,25.1
2018-05-03T08:57:41.130Z,25.6
2018-05-03T08:58:31.120Z,26
2018-05-03T08:59:21.170Z,25.3
2018-05-03T09:00:11.247Z,24.8
2018-05-03T09:01:01.021Z,25.5
2018-05-03T09:01:51.741Z,25.6
2018-05-03T09:02:41.456Z,25.7
2018-05-03T09:03:31.534Z,25.7
2018-05-03T09:04:21.579Z,26.2
2018-05-03T09:05:11.620Z,25.6
2018-05-03T09:06:01.710Z,25.7
2018-05-03T09:06:51.763Z,25.6
2018-05-03T09:07:41.900Z,25.9
2018-05-03T09:08:31.907Z,26.1
2018-05-03T09:09:21.968Z,26.3
2018-05-03T09:10:11.753Z,26.7
2018-05-03T09:11:01.811Z,25.6
2018-05-03T09:11:52.196Z,24.9
2018-05-03T09:12:42.240Z,25.3
2018-05-03T09:13:32.313Z,25.2
2018-05-03T09:14:22.102Z,25.7
2018-05-03T09:15:11.885Z,26.4
2018-05-03T09:16:02.231Z,26.6
2018-05-03T09:16:52.305Z,26.8
2018-05-03T09:17:42.638Z,26.6
2018-05-03T09:18:32.694Z,26.3
2018-05-03T09:19:22.492Z,26.5
2018-05-03T09:20:12.830Z,25.4
2018-05-03T09:21:02.639Z,25.6
2018-05-03T09:21:52.135Z,26.3
2018-05-03T09:22:42.755Z,26.3
2018-05-03T09:23:33.118Z,26.3
2018-05-03T09:24:23.172Z,26.2
2018-05-03T09:25:13.240Z,26.4
2018-05-03T09:26:03.305Z,26.8
2018-05-03T09:26:53.202Z,26.9
2018-05-03T09:27:43.422Z,27.1
2018-05-03T09:28:33.510Z,27.2
2018-05-03T09:29:23.004Z,27.6
2018-05-03T09:30:13.087Z,27.2
2018-05-03T09:31:03.709Z,27.3
2018-05-03T09:31:53.533Z,27
2018-05-03T09:32:43.280Z,26.5
2018-05-03T09:33:33.348Z,27.1
2018-05-03T09:34:23.704Z,26.8
2018-05-03T09:35:13.485Z,25.9
2018-05-03T09:36:04.118Z,26
2018-05-03T09:36:53.900Z,26.1
2018-05-03T09:37:43.763Z,26.6
2018-05-03T09:38:34.021Z,26.6
2018-05-03T09:39:24.369Z,26.1
2018-05-03T09:40:14.203Z,26.4
2018-05-03T09:41:04.500Z,27
2018-05-03T09:41:54.559Z,27.5
2018-05-03T09:42:44.343Z,27.1
2018-05-03T09:43:34.698Z,26.7
2018-05-03T09:44:24.395Z,27.2
2018-05-03T09:45:14.553Z,27.5
2018-05-03T09:46:04.607Z,27
2018-05-03T09:46:54.981Z,26.5
2018-05-03T09:47:44.447Z,26.4
2018-05-03T09:48:35.095Z,26.1
2018-05-03T09:49:25.149Z,25.9
2018-05-03T09:50:14.960Z,26.1
2018-05-03T09:51:04.721Z,26.1
2018-05-03T09:51:55.100Z,26.8
2018-05-03T09:52:45.132Z,26
2018-05-03T09:53:35.211Z,26.3
2018-05-03T09:54:25.555Z,26.8
2018-05-03T09:55:14.766Z,27.4
2018-05-03T09:56:05.682Z,27.5
2018-05-03T09:56:55.188Z,27.4
2018-05-03T09:57:45.810Z,27.5
2018-05-03T09:58:35.919Z,26.4
2018-05-03T09:59:26.367Z,26.2
2018-05-03T10:00:16.152Z,26.7
2018-05-03T10:01:05.833Z,27
2018-05-03T10:01:55.301Z,27.3
2018-05-03T10:02:46.235Z,26.9
2018-05-03T10:03:36.009Z,26.6
2018-05-03T10:04:26.099Z,27.1
2018-05-03T10:05:16.424Z,26.9
2018-05-03T10:06:06.554Z,25.7
2018-05-03T10:06:56.547Z,26
2018-05-03T10:07:46.610Z,25.9
2018-05-03T10:08:36.137Z,26.4
2018-05-03T10:09:26.458Z,26.5
2018-05-03T10:10:16.821Z,26.4
2018-05-03T10:11:06.877Z,26.1
2018-05-03T10:11:56.391Z,25.3
2018-05-03T10:12:47.024Z,25.6
2018-05-03T10:13:37.091Z,25.2
2018-05-03T10:14:27.203Z,25.3
2018-05-03T10:15:16.921Z,25.6
2018-05-03T10:16:07.019Z,25.7
2018-05-03T10:16:56.783Z,25.8
2018-05-03T10:17:47.439Z,26.1
2018-05-03T10:18:37.498Z,25.9
2018-05-03T10:19:27.022Z,25.8
2018-05-03T10:20:17.325Z,25.7
2018-05-03T10:21:06.819Z,26.1
2018-05-03T10:21:57.735Z,26.1
2018-05-03T10:22:47.354Z,26.4
2018-05-03T10:23:37.306Z,26.1
2018-05-03T10:24:27.101Z,25.9
2018-05-03T10:25:17.710Z,25.4
2018-05-03T10:26:07.527Z,25.3
2018-05-03T10:26:57.856Z,25.3
2018-05-03T10:27:48.202Z,25.8
2018-05-03T10:28:38.260Z,25.6
2018-05-03T10:29:28.406Z,25.9
2018-05-03T10:30:19.144Z,25.8
2018-05-03T10:31:08.451Z,26.1
2018-05-03T10:31:58.524Z,26.6
2018-05-03T10:32:48.624Z,27.2
2018-05-03T10:33:38.667Z,27.2
2018-05-03T10:34:28.736Z,26.4
2018-05-03T10:35:18.539Z,26.6
2018-05-03T10:36:09.171Z,26.4
2018-05-03T10:36:58.936Z,26.2
2018-05-03T10:37:49.019Z,26
2018-05-03T10:38:39.047Z,25.9
2018-05-03T10:39:28.858Z,25.9
2018-05-03T10:40:18.921Z,25.9
2018-05-03T10:41:08.706Z,26.4
2018-05-03T10:41:59.846Z,26.5
2018-05-03T10:42:49.406Z,26.9
2018-05-03T10:43:38.890Z,26.9
2018-05-03T10:44:28.972Z,26.2
2018-05-03T10:45:19.106Z,26.2
2018-05-03T10:46:09.664Z,26.4
2018-05-03T10:46:59.465Z,27.1
2018-05-03T10:47:49.783Z,27.8
2018-05-03T10:50:19.416Z,27.4
2018-05-03T10:51:09.514Z,27.8
2018-05-03T10:52:00.115Z,27.7
2018-05-03T10:52:50.169Z,26.8
2018-05-03T10:53:40.236Z,26.9
2018-05-03T10:54:30.313Z,26.5
2018-05-03T10:55:20.474Z,26.5
2018-05-03T10:56:10.440Z,26.3
2018-05-03T10:57:00.588Z,26.4
2018-05-03T10:57:50.561Z,26
2018-05-03T10:58:40.658Z,26
2018-05-03T10:59:30.765Z,26.1
2018-05-03T11:00:20.800Z,26.6
2018-05-03T11:01:10.668Z,26.6
2018-05-03T11:02:00.899Z,26.5
2018-05-03T11:02:50.687Z,26.2
2018-05-03T11:03:40.548Z,26.1
2018-05-03T11:04:30.811Z,26
2018-05-03T11:05:21.781Z,25.9
2018-05-03T11:06:10.732Z,25.6
2018-05-03T11:07:00.734Z,25.3
2018-05-03T11:07:50.835Z,25.3
2018-05-03T11:08:40.599Z,25.3
2018-05-03T11:09:30.653Z,25.4
2018-05-03T11:10:21.280Z,25.8
2018-05-03T11:11:12.014Z,26.2
2018-05-03T11:12:01.730Z,26.1
2018-05-03T11:12:51.796Z,26.2
2018-05-03T11:13:41.895Z,26.1
2018-05-03T11:14:31.897Z,25.9
2018-05-03T11:15:21.958Z,26.3
2018-05-03T11:16:12.007Z,26.4